sensor_id;sensor_type;location;lat;lon;timestamp;pressure;altitude;pressure_sealevel;temperature;humidity
48267;BME280;34088;52.232;5.196;2023-12-22T00:01:45;100334.72;;;6.34;96.09
48267;BME280;34088;52.232;5.196;2023-12-22T00:04:10;100305.53;;;6.37;96.10
48267;BME280;34088;52.232;5.196;2023-12-22T00:06:36;100324.63;;;6.27;93.97
48267;BME280;34088;52.232;5.196;2023-12-22T00:09:01;100322.19;;;6.22;93.85
48267;BME280;34088;52.232;5.196;2023-12-22T00:11:27;100310.34;;;6.17;93.94
48267;BME280;34088;52.232;5.196;2023-12-22T00:13:52;100312.13;;;6.13;94.95
48267;BME280;34088;52.232;5.196;2023-12-22T00:16:17;100319.16;;;6.07;93.85
48267;BME280;34088;52.232;5.196;2023-12-22T01:22:03;100350.59;;;6.50;93.60
48267;BME280;34088;52.232;5.196;2023-12-22T01:24:29;100343.78;;;6.49;93.65
48267;BME280;34088;52.232;5.196;2023-12-22T01:26:54;100343.63;;;6.55;93.61
48267;BME280;34088;52.232;5.196;2023-12-22T01:29:19;100330.78;;;6.53;94.16
48267;BME280;34088;52.232;5.196;2023-12-22T01:31:44;100337.78;;;6.48;94.32
48267;BME280;34088;52.232;5.196;2023-12-22T01:34:10;100339.38;;;6.52;94.23
48267;BME280;34088;52.232;5.196;2023-12-22T01:36:35;100342.88;;;6.50;94.32
48267;BME280;34088;52.232;5.196;2023-12-22T01:39:01;100345.44;;;6.50;94.61
48267;BME280;34088;52.232;5.196;2023-12-22T01:41:27;100345.38;;;6.53;94.46
48267;BME280;34088;52.232;5.196;2023-12-22T01:43:52;100345.38;;;6.53;94.18
48267;BME280;34088;52.232;5.196;2023-12-22T01:46:18;100345.41;;;6.51;94.28
48267;BME280;34088;52.232;5.196;2023-12-22T01:48:43;100345.31;;;6.54;94.07
48267;BME280;34088;52.232;5.196;2023-12-22T01:51:09;100351.31;;;6.55;94.23
48267;BME280;34088;52.232;5.196;2023-12-22T01:53:34;100348.75;;;6.55;94.45
48267;BME280;34088;52.232;5.196;2023-12-22T01:56:01;100354.00;;;6.52;94.67
48267;BME280;34088;52.232;5.196;2023-12-22T01:58:29;100335.91;;;6.55;94.45
48267;BME280;34088;52.232;5.196;2023-12-22T02:00:56;100345.22;;;6.59;94.86
48267;BME280;34088;52.232;5.196;2023-12-22T02:03:22;100337.41;;;6.62;94.71
48267;BME280;34088;52.232;5.196;2023-12-22T02:05:47;100334.78;;;6.65;94.92
48267;BME280;34088;52.232;5.196;2023-12-22T02:08:13;100327.94;;;6.64;94.80
48267;BME280;34088;52.232;5.196;2023-12-22T02:10:40;100336.47;;;6.66;94.51
48267;BME280;34088;52.232;5.196;2023-12-22T02:13:06;100320.09;;;6.68;94.77
48267;BME280;34088;52.232;5.196;2023-12-22T02:15:32;100336.47;;;6.66;94.83
48267;BME280;34088;52.232;5.196;2023-12-22T02:18:02;100337.25;;;6.68;94.98
48267;BME280;34088;52.232;5.196;2023-12-22T02:20:30;100341.44;;;6.72;95.20
48267;BME280;34088;52.232;5.196;2023-12-22T02:22:55;100315.66;;;6.75;94.40
48267;BME280;34088;52.232;5.196;2023-12-22T02:25:20;100315.38;;;6.84;93.63
48267;BME280;34088;52.232;5.196;2023-12-22T02:27:49;100306.78;;;6.85;93.65
48267;BME280;34088;52.232;5.196;2023-12-22T02:33:03;100309.69;;;7.03;89.75
48267;BME280;34088;52.232;5.196;2023-12-22T02:35:30;100311.50;;;7.00;89.79
48267;BME280;34088;52.232;5.196;2023-12-22T02:37:57;100308.81;;;7.03;89.94
48267;BME280;34088;52.232;5.196;2023-12-22T02:40:24;100303.59;;;7.06;88.73
48267;BME280;34088;52.232;5.196;2023-12-22T02:42:51;100315.41;;;7.13;87.48
48267;BME280;34088;52.232;5.196;2023-12-22T02:45:18;100302.97;;;7.27;85.42
48267;BME280;34088;52.232;5.196;2023-12-22T02:47:44;100300.19;;;7.33;84.00
48267;BME280;34088;52.232;5.196;2023-12-22T02:50:09;100302.78;;;7.33;83.46
48267;BME280;34088;52.232;5.196;2023-12-22T02:52:35;100302.56;;;7.40;82.64
48267;BME280;34088;52.232;5.196;2023-12-22T02:55:01;100305.34;;;7.33;84.30
48267;BME280;34088;52.232;5.196;2023-12-22T02:57:26;100298.44;;;7.35;83.54
48267;BME280;34088;52.232;5.196;2023-12-22T02:59:52;100298.09;;;7.45;82.75
48267;BME280;34088;52.232;5.196;2023-12-22T03:02:17;100304.81;;;7.51;83.12
48267;BME280;34088;52.232;5.196;2023-12-22T03:04:42;100325.34;;;7.52;83.05
48267;BME280;34088;52.232;5.196;2023-12-22T03:07:08;100323.53;;;7.56;83.51
48267;BME280;34088;52.232;5.196;2023-12-22T03:09:33;100320.88;;;7.59;82.75
48267;BME280;34088;52.232;5.196;2023-12-22T03:11:59;100312.88;;;7.68;80.13
48267;BME280;34088;52.232;5.196;2023-12-22T03:14:31;100333.16;;;7.78;79.19
48267;BME280;34088;52.232;5.196;2023-12-22T03:17:01;100332.28;;;7.78;79.54
48267;BME280;34088;52.232;5.196;2023-12-22T03:19:26;100321.97;;;7.78;79.22
48267;BME280;34088;52.232;5.196;2023-12-22T03:21:51;100331.41;;;7.79;79.14
48267;BME280;34088;52.232;5.196;2023-12-22T03:24:17;100333.88;;;7.82;79.37
48267;BME280;34088;52.232;5.196;2023-12-22T03:26:44;100333.09;;;7.80;78.43
48267;BME280;34088;52.232;5.196;2023-12-22T03:29:10;100331.19;;;7.85;78.84
48267;BME280;34088;52.232;5.196;2023-12-22T03:31:35;100351.69;;;7.89;77.67
48267;BME280;34088;52.232;5.196;2023-12-22T03:34:00;100396.56;;;7.82;79.54
48267;BME280;34088;52.232;5.196;2023-12-22T03:36:26;100397.47;;;7.23;86.49
48267;BME280;34088;52.232;5.196;2023-12-22T03:38:51;100402.09;;;6.80;89.83
48267;BME280;34088;52.232;5.196;2023-12-22T03:41:16;100397.41;;;6.64;91.00
48267;BME280;34088;52.232;5.196;2023-12-22T03:43:41;100394.47;;;6.44;91.15
48267;BME280;34088;52.232;5.196;2023-12-22T03:46:07;100380.63;;;6.49;92.20
48267;BME280;34088;52.232;5.196;2023-12-22T03:48:32;100390.19;;;6.43;92.08
48267;BME280;34088;52.232;5.196;2023-12-22T03:50:58;100379.31;;;6.33;92.85
48267;BME280;34088;52.232;5.196;2023-12-22T03:53:23;100371.78;;;6.26;94.03
48267;BME280;34088;52.232;5.196;2023-12-22T03:55:48;100381.00;;;6.34;93.48
48267;BME280;34088;52.232;5.196;2023-12-22T03:58:13;100370.75;;;6.33;93.59
48267;BME280;34088;52.232;5.196;2023-12-22T04:00:39;100365.53;;;6.36;93.74
48267;BME280;34088;52.232;5.196;2023-12-22T04:03:04;100359.66;;;6.31;93.99
48267;BME280;34088;52.232;5.196;2023-12-22T04:05:29;100367.38;;;6.31;93.88
48267;BME280;34088;52.232;5.196;2023-12-22T04:07:55;100365.53;;;6.36;94.15
48267;BME280;34088;52.232;5.196;2023-12-22T04:10:20;100350.91;;;6.38;93.98
48267;BME280;34088;52.232;5.196;2023-12-22T04:12:45;100358.44;;;6.45;93.63
48267;BME280;34088;52.232;5.196;2023-12-22T04:15:10;100359.16;;;6.50;94.10
48267;BME280;34088;52.232;5.196;2023-12-22T04:17:36;100361.78;;;6.49;94.29
48267;BME280;34088;52.232;5.196;2023-12-22T04:20:01;100351.47;;;6.49;94.42
48267;BME280;34088;52.232;5.196;2023-12-22T04:22:27;100362.50;;;6.54;94.70
48267;BME280;34088;52.232;5.196;2023-12-22T04:24:52;100366.69;;;6.58;94.56
48267;BME280;34088;52.232;5.196;2023-12-22T04:27:17;100370.03;;;6.61;93.64
48267;BME280;34088;52.232;5.196;2023-12-22T04:29:42;100358.72;;;6.67;93.05
48267;BME280;34088;52.232;5.196;2023-12-22T04:32:08;100359.59;;;6.66;93.12
48267;BME280;34088;52.232;5.196;2023-12-22T04:34:34;100366.22;;;6.76;91.77
48267;BME280;34088;52.232;5.196;2023-12-22T04:36:59;100369.44;;;6.82;91.98
48267;BME280;34088;52.232;5.196;2023-12-22T04:39:24;100361.56;;;6.88;91.76
48267;BME280;34088;52.232;5.196;2023-12-22T04:41:49;100372.72;;;6.87;91.90
48267;BME280;34088;52.232;5.196;2023-12-22T04:44:15;100358.03;;;6.92;91.35
48267;BME280;34088;52.232;5.196;2023-12-22T04:46:40;100369.16;;;6.93;90.98
48267;BME280;34088;52.232;5.196;2023-12-22T04:49:05;100359.66;;;6.95;90.41
48267;BME280;34088;52.232;5.196;2023-12-22T04:51:31;100363.88;;;6.97;90.19
48267;BME280;34088;52.232;5.196;2023-12-22T04:53:56;100359.50;;;7.01;89.82
48267;BME280;34088;52.232;5.196;2023-12-22T04:56:21;100353.25;;;7.09;88.92
48267;BME280;34088;52.232;5.196;2023-12-22T04:58:47;100366.75;;;7.17;88.59
48267;BME280;34088;52.232;5.196;2023-12-22T05:01:12;100361.66;;;7.16;89.09
48267;BME280;34088;52.232;5.196;2023-12-22T05:03:37;100363.25;;;7.20;88.37
48267;BME280;34088;52.232;5.196;2023-12-22T05:06:03;100360.50;;;7.26;88.63
48267;BME280;34088;52.232;5.196;2023-12-22T05:08:29;100358.31;;;7.41;87.90
48267;BME280;34088;52.232;5.196;2023-12-22T05:10:54;100354.63;;;7.50;88.79
48267;BME280;34088;52.232;5.196;2023-12-22T05:13:19;100343.31;;;7.55;88.05
48267;BME280;34088;52.232;5.196;2023-12-22T05:15:44;100353.31;;;7.64;88.76
48267;BME280;34088;52.232;5.196;2023-12-22T05:18:10;100354.09;;;7.68;88.45
48267;BME280;34088;52.232;5.196;2023-12-22T05:20:35;100340.22;;;7.72;88.37
48267;BME280;34088;52.232;5.196;2023-12-22T05:23:01;100336.66;;;7.76;88.74
48267;BME280;34088;52.232;5.196;2023-12-22T05:25:26;100351.72;;;7.88;87.13
48267;BME280;34088;52.232;5.196;2023-12-22T05:27:51;100356.03;;;7.87;87.47
48267;BME280;34088;52.232;5.196;2023-12-22T05:30:17;100365.50;;;7.87;86.43
48267;BME280;34088;52.232;5.196;2023-12-22T05:32:42;100354.91;;;7.96;84.89
48267;BME280;34088;52.232;5.196;2023-12-22T05:35:09;100343.03;;;7.92;85.66
48267;BME280;34088;52.232;5.196;2023-12-22T05:37:35;100348.00;;;7.98;84.41
48267;BME280;34088;52.232;5.196;2023-12-22T05:40:00;100344.47;;;8.00;83.64
48267;BME280;34088;52.232;5.196;2023-12-22T05:42:25;100347.09;;;7.99;84.17
48267;BME280;34088;52.232;5.196;2023-12-22T05:44:51;100341.03;;;8.00;84.50
48267;BME280;34088;52.232;5.196;2023-12-22T05:47:16;100340.88;;;8.04;84.90
48267;BME280;34088;52.232;5.196;2023-12-22T05:49:43;100339.03;;;8.08;85.00
48267;BME280;34088;52.232;5.196;2023-12-22T05:52:08;100359.63;;;8.09;85.35
48267;BME280;34088;52.232;5.196;2023-12-22T05:54:35;100361.19;;;8.15;85.32
48267;BME280;34088;52.232;5.196;2023-12-22T05:57:00;100348.28;;;8.15;86.31
48267;BME280;34088;52.232;5.196;2023-12-22T05:59:25;100346.53;;;8.15;86.87
48267;BME280;34088;52.232;5.196;2023-12-22T06:01:55;100363.63;;;8.18;86.93
48267;BME280;34088;52.232;5.196;2023-12-22T06:04:21;100358.34;;;8.22;87.07
48267;BME280;34088;52.232;5.196;2023-12-22T06:06:46;100360.16;;;8.19;86.64
48267;BME280;34088;52.232;5.196;2023-12-22T06:09:11;100353.19;;;8.22;86.50
48267;BME280;34088;52.232;5.196;2023-12-22T06:11:38;100348.78;;;8.26;87.10
48267;BME280;34088;52.232;5.196;2023-12-22T06:14:05;100354.81;;;8.26;86.54
48267;BME280;34088;52.232;5.196;2023-12-22T06:16:30;100365.97;;;8.27;86.45
48267;BME280;34088;52.232;5.196;2023-12-22T06:18:55;100361.56;;;8.30;87.09
48267;BME280;34088;52.232;5.196;2023-12-22T06:21:20;100351.25;;;8.30;86.61
48267;BME280;34088;52.232;5.196;2023-12-22T06:23:46;100365.78;;;8.33;86.21
48267;BME280;34088;52.232;5.196;2023-12-22T06:26:11;100365.44;;;8.42;86.05
48267;BME280;34088;52.232;5.196;2023-12-22T06:28:37;100353.50;;;8.39;86.32
48267;BME280;34088;52.232;5.196;2023-12-22T06:31:03;100351.00;;;8.38;86.08
48267;BME280;34088;52.232;5.196;2023-12-22T06:33:29;100359.47;;;8.41;86.44
48267;BME280;34088;52.232;5.196;2023-12-22T06:35:55;100361.03;;;8.45;86.21
48267;BME280;34088;52.232;5.196;2023-12-22T06:38:20;100352.47;;;8.45;85.36
48267;BME280;34088;52.232;5.196;2023-12-22T06:40:45;100353.19;;;8.48;85.94
48267;BME280;34088;52.232;5.196;2023-12-22T06:43:12;100352.22;;;8.52;86.25
48267;BME280;34088;52.232;5.196;2023-12-22T06:45:38;100352.13;;;8.54;86.39
48267;BME280;34088;52.232;5.196;2023-12-22T06:48:05;100352.22;;;8.52;85.99
48267;BME280;34088;52.232;5.196;2023-12-22T06:50:30;100348.00;;;8.50;85.83
48267;BME280;34088;52.232;5.196;2023-12-22T06:52:56;100353.00;;;8.54;85.85
48267;BME280;34088;52.232;5.196;2023-12-22T06:55:21;100352.09;;;8.55;86.46
48267;BME280;34088;52.232;5.196;2023-12-22T06:57:46;100350.38;;;8.56;86.36
48267;BME280;34088;52.232;5.196;2023-12-22T07:00:12;100348.66;;;8.55;86.59
48267;BME280;34088;52.232;5.196;2023-12-22T07:02:37;100349.47;;;8.57;86.50
48267;BME280;34088;52.232;5.196;2023-12-22T07:07:34;100338.97;;;8.61;86.65
48267;BME280;34088;52.232;5.196;2023-12-22T07:10:00;100334.59;;;8.63;86.30
48267;BME280;34088;52.232;5.196;2023-12-22T07:12:25;100340.63;;;8.64;87.17
48267;BME280;34088;52.232;5.196;2023-12-22T07:14:50;100340.66;;;8.62;86.74
48267;BME280;34088;52.232;5.196;2023-12-22T07:17:16;100339.03;;;8.60;87.54
48267;BME280;34088;52.232;5.196;2023-12-22T07:19:41;100344.09;;;8.63;88.39
48267;BME280;34088;52.232;5.196;2023-12-22T07:22:06;100349.13;;;8.66;88.34
48267;BME280;34088;52.232;5.196;2023-12-22T07:24:32;100347.41;;;8.66;88.60
48267;BME280;34088;52.232;5.196;2023-12-22T07:26:57;100347.25;;;8.71;88.58
48267;BME280;34088;52.232;5.196;2023-12-22T07:29:22;100345.56;;;8.70;88.87
48267;BME280;34088;52.232;5.196;2023-12-22T07:31:48;100334.97;;;8.77;89.09
48267;BME280;34088;52.232;5.196;2023-12-22T07:34:13;100327.47;;;8.71;89.47
48267;BME280;34088;52.232;5.196;2023-12-22T07:36:39;100344.66;;;8.71;90.23
48267;BME280;34088;52.232;5.196;2023-12-22T07:39:04;100344.91;;;8.63;91.06
48267;BME280;34088;52.232;5.196;2023-12-22T07:41:31;100342.03;;;8.48;91.96
48267;BME280;34088;52.232;5.196;2023-12-22T07:43:56;100335.41;;;8.41;92.81
48267;BME280;34088;52.232;5.196;2023-12-22T07:46:21;100332.16;;;8.34;94.18
48267;BME280;34088;52.232;5.196;2023-12-22T07:48:48;100336.34;;;8.38;94.68
48267;BME280;34088;52.232;5.196;2023-12-22T07:51:13;100342.03;;;8.23;96.93
48267;BME280;34088;52.232;5.196;2023-12-22T07:53:38;100345.22;;;8.30;97.65
48267;BME280;34088;52.232;5.196;2023-12-22T07:56:04;100347.59;;;8.36;97.20
48267;BME280;34088;52.232;5.196;2023-12-22T07:58:31;100347.56;;;8.37;96.38
48267;BME280;34088;52.232;5.196;2023-12-22T08:00:57;100347.31;;;8.45;97.28
48267;BME280;34088;52.232;5.196;2023-12-22T08:03:22;100354.03;;;8.49;98.17
48267;BME280;34088;52.232;5.196;2023-12-22T08:05:47;100350.56;;;8.50;98.29
48267;BME280;34088;52.232;5.196;2023-12-22T08:08:13;100354.09;;;8.47;97.54
48267;BME280;34088;52.232;5.196;2023-12-22T08:10:38;100351.22;;;8.55;97.98
48267;BME280;34088;52.232;5.196;2023-12-22T08:13:03;100344.41;;;8.54;98.53
48267;BME280;34088;52.232;5.196;2023-12-22T08:15:28;100337.47;;;8.56;97.76
48267;BME280;34088;52.232;5.196;2023-12-22T08:17:54;100341.72;;;8.57;98.03
48267;BME280;34088;52.232;5.196;2023-12-22T08:20:20;100339.34;;;8.51;98.42
48267;BME280;34088;52.232;5.196;2023-12-22T08:22:49;100349.75;;;8.48;98.27
48267;BME280;34088;52.232;5.196;2023-12-22T08:25:16;100323.34;;;8.41;98.18
48267;BME280;34088;52.232;5.196;2023-12-22T08:27:42;100325.84;;;8.43;98.53
48267;BME280;34088;52.232;5.196;2023-12-22T08:30:09;100320.88;;;8.38;99.38
48267;BME280;34088;52.232;5.196;2023-12-22T08:32:34;100316.66;;;8.36;100.00
48267;BME280;34088;52.232;5.196;2023-12-22T08:34:59;100320.81;;;8.40;100.00
48267;BME280;34088;52.232;5.196;2023-12-22T08:37:25;100310.50;;;8.40;100.00
48267;BME280;34088;52.232;5.196;2023-12-22T08:39:50;100309.44;;;8.45;100.00
48267;BME280;34088;52.232;5.196;2023-12-22T08:42:16;100302.19;;;8.56;100.00
48267;BME280;34088;52.232;5.196;2023-12-22T08:44:41;100306.38;;;8.59;100.00
48267;BME280;34088;52.232;5.196;2023-12-22T08:47:07;100313.13;;;8.63;100.00
48267;BME280;34088;52.232;5.196;2023-12-22T08:49:32;100309.66;;;8.64;100.00
48267;BME280;34088;52.232;5.196;2023-12-22T08:51:57;100303.50;;;8.68;100.00
48267;BME280;34088;52.232;5.196;2023-12-22T08:54:23;100321.41;;;8.72;100.00
48267;BME280;34088;52.232;5.196;2023-12-22T08:56:48;100309.28;;;8.74;100.00
48267;BME280;34088;52.232;5.196;2023-12-22T08:59:13;100308.22;;;8.80;100.00
48267;BME280;34088;52.232;5.196;2023-12-22T09:01:38;100301.31;;;8.80;100.00
48267;BME280;34088;52.232;5.196;2023-12-22T09:04:06;100304.47;;;8.88;100.00
48267;BME280;34088;52.232;5.196;2023-12-22T09:06:31;100303.53;;;8.91;100.00
48267;BME280;34088;52.232;5.196;2023-12-22T09:08:56;100302.66;;;8.90;100.00
48267;BME280;34088;52.232;5.196;2023-12-22T09:11:22;100293.41;;;8.85;100.00
48267;BME280;34088;52.232;5.196;2023-12-22T09:13:48;100295.31;;;8.80;99.99
48267;BME280;34088;52.232;5.196;2023-12-22T09:16:13;100316.22;;;8.72;100.00
48267;BME280;34088;52.232;5.196;2023-12-22T09:18:41;100309.81;;;8.59;100.00
48267;BME280;34088;52.232;5.196;2023-12-22T09:21:08;100329.19;;;8.46;98.66
48267;BME280;34088;52.232;5.196;2023-12-22T09:23:33;100337.75;;;8.47;98.95
48267;BME280;34088;52.232;5.196;2023-12-22T09:25:58;100327.66;;;8.41;98.43
48267;BME280;34088;52.232;5.196;2023-12-22T09:28:24;100327.78;;;8.38;98.76
48267;BME280;34088;52.232;5.196;2023-12-22T09:30:49;100321.72;;;8.39;98.18
48267;BME280;34088;52.232;5.196;2023-12-22T09:33:14;100317.34;;;8.41;98.45
48267;BME280;34088;52.232;5.196;2023-12-22T09:35:40;100301.69;;;8.45;99.23
48267;BME280;34088;52.232;5.196;2023-12-22T09:38:07;100303.47;;;8.45;99.61
48267;BME280;34088;52.232;5.196;2023-12-22T09:40:34;100315.19;;;8.53;100.00
48267;BME280;34088;52.232;5.196;2023-12-22T09:43:02;100303.00;;;8.58;100.00
48267;BME280;34088;52.232;5.196;2023-12-22T09:45:27;100309.59;;;8.65;100.00
48267;BME280;34088;52.232;5.196;2023-12-22T09:47:55;100311.94;;;8.73;100.00
48267;BME280;34088;52.232;5.196;2023-12-22T09:50:21;100314.28;;;8.79;100.00
48267;BME280;34088;52.232;5.196;2023-12-22T09:52:46;100300.94;;;8.91;100.00
48267;BME280;34088;52.232;5.196;2023-12-22T09:55:15;100310.97;;;8.98;100.00
48267;BME280;34088;52.232;5.196;2023-12-22T09:57:41;100297.72;;;9.07;100.00
48267;BME280;34088;52.232;5.196;2023-12-22T10:00:10;100307.72;;;9.16;100.00
48267;BME280;34088;52.232;5.196;2023-12-22T10:02:38;100317.66;;;9.27;100.00
48267;BME280;34088;52.232;5.196;2023-12-22T10:05:04;100320.06;;;9.31;99.60
48267;BME280;34088;52.232;5.196;2023-12-22T10:07:30;100310.41;;;9.36;99.45
48267;BME280;34088;52.232;5.196;2023-12-22T10:09:57;100323.19;;;9.39;99.26
48267;BME280;34088;52.232;5.196;2023-12-22T10:12:23;100320.59;;;9.39;99.57
48267;BME280;34088;52.232;5.196;2023-12-22T10:14:49;100324.03;;;9.40;99.05
48267;BME280;34088;52.232;5.196;2023-12-22T10:17:15;100338.53;;;9.44;99.38
48267;BME280;34088;52.232;5.196;2023-12-22T10:19:41;100329.03;;;9.44;100.00
48267;BME280;34088;52.232;5.196;2023-12-22T10:22:07;100333.22;;;9.47;99.75
48267;BME280;34088;52.232;5.196;2023-12-22T10:24:42;100340.09;;;9.48;99.10
48267;BME280;34088;52.232;5.196;2023-12-22T10:27:08;100330.59;;;9.48;99.66
48267;BME280;34088;52.232;5.196;2023-12-22T10:29:34;100339.31;;;9.46;99.69
48267;BME280;34088;52.232;5.196;2023-12-22T10:32:03;100334.13;;;9.46;100.00
48267;BME280;34088;52.232;5.196;2023-12-22T10:34:30;100331.47;;;9.49;99.75
48267;BME280;34088;52.232;5.196;2023-12-22T10:36:56;100344.38;;;9.49;100.00
48267;BME280;34088;52.232;5.196;2023-12-22T10:39:22;100343.41;;;9.51;100.00
48267;BME280;34088;52.232;5.196;2023-12-22T10:41:48;100343.47;;;9.50;100.00
48267;BME280;34088;52.232;5.196;2023-12-22T10:44:15;100338.84;;;9.57;98.75
48267;BME280;34088;52.232;5.196;2023-12-22T10:46:42;100342.94;;;9.63;98.78
48267;BME280;34088;52.232;5.196;2023-12-22T10:49:07;100343.47;;;9.71;97.57
48267;BME280;34088;52.232;5.196;2023-12-22T10:51:33;100343.44;;;9.73;97.20
48267;BME280;34088;52.232;5.196;2023-12-22T10:53:58;100340.75;;;9.74;97.53
48267;BME280;34088;52.232;5.196;2023-12-22T10:56:27;100335.84;;;9.68;97.86
48267;BME280;34088;52.232;5.196;2023-12-22T10:58:53;100337.22;;;9.76;96.81
48267;BME280;34088;52.232;5.196;2023-12-22T11:01:21;100334.47;;;9.81;97.14
48267;BME280;34088;52.232;5.196;2023-12-22T11:03:50;100339.56;;;9.82;95.97
48267;BME280;34088;52.232;5.196;2023-12-22T11:06:16;100335.38;;;9.80;96.36
48267;BME280;34088;52.232;5.196;2023-12-22T11:08:43;100336.94;;;9.84;95.51
48267;BME280;34088;52.232;5.196;2023-12-22T11:11:39;100319.69;;;9.84;94.36
48267;BME280;34088;52.232;5.196;2023-12-22T11:14:06;100315.09;;;9.91;94.40
48267;BME280;34088;52.232;5.196;2023-12-22T11:16:33;100316.84;;;9.90;94.19
48267;BME280;34088;52.232;5.196;2023-12-22T11:19:03;100306.38;;;9.93;95.08
48267;BME280;34088;52.232;5.196;2023-12-22T11:21:29;100310.31;;;9.82;95.68
48267;BME280;34088;52.232;5.196;2023-12-22T11:23:55;100306.63;;;9.87;96.32
48267;BME280;34088;52.232;5.196;2023-12-22T11:26:23;100316.03;;;9.88;95.68
48267;BME280;34088;52.232;5.196;2023-12-22T11:28:50;100323.59;;;9.94;94.84
48267;BME280;34088;52.232;5.196;2023-12-22T11:31:17;100314.78;;;9.98;95.54
48267;BME280;34088;52.232;5.196;2023-12-22T11:33:50;100302.72;;;9.99;94.51
48267;BME280;34088;52.232;5.196;2023-12-22T11:36:17;100304.59;;;9.95;94.75
48267;BME280;34088;52.232;5.196;2023-12-22T11:38:45;100308.06;;;9.94;94.62
48267;BME280;34088;52.232;5.196;2023-12-22T11:41:15;100303.53;;;9.99;93.93
48267;BME280;34088;52.232;5.196;2023-12-22T11:43:43;100302.66;;;10.00;94.04
48267;BME280;34088;52.232;5.196;2023-12-22T11:46:09;100300.84;;;10.02;92.90
48267;BME280;34088;52.232;5.196;2023-12-22T11:48:35;100286.06;;;10.06;93.13
48267;BME280;34088;52.232;5.196;2023-12-22T11:51:12;100285.22;;;10.05;93.17
48267;BME280;34088;52.232;5.196;2023-12-22T11:53:38;100282.63;;;10.05;92.21
48267;BME280;34088;52.232;5.196;2023-12-22T11:56:05;100278.25;;;10.07;92.41
48267;BME280;34088;52.232;5.196;2023-12-22T11:58:46;100273.78;;;10.11;93.21
48267;BME280;34088;52.232;5.196;2023-12-22T12:01:21;100267.72;;;10.12;93.49
48267;BME280;34088;52.232;5.196;2023-12-22T12:03:52;100254.94;;;10.09;93.68
48267;BME280;34088;52.232;5.196;2023-12-22T12:08:53;100251.88;;;10.19;93.56
48267;BME280;34088;52.232;5.196;2023-12-22T12:11:18;100253.44;;;10.23;93.79
48267;BME280;34088;52.232;5.196;2023-12-22T12:13:45;100257.69;;;10.24;93.12
48267;BME280;34088;52.232;5.196;2023-12-22T12:16:12;100248.97;;;10.27;93.18
48267;BME280;34088;52.232;5.196;2023-12-22T12:18:38;100249.78;;;10.27;93.50
48267;BME280;34088;52.232;5.196;2023-12-22T12:21:06;100254.06;;;10.28;93.46
48267;BME280;34088;52.232;5.196;2023-12-22T12:23:32;100244.50;;;10.30;92.66
48267;BME280;34088;52.232;5.196;2023-12-22T12:25:57;100242.69;;;10.32;92.71
48267;BME280;34088;52.232;5.196;2023-12-22T12:28:30;100249.53;;;10.33;92.76
48267;BME280;34088;52.232;5.196;2023-12-22T12:30:57;100247.75;;;10.35;92.73
48267;BME280;34088;52.232;5.196;2023-12-22T12:33:25;100238.28;;;10.34;91.99
48267;BME280;34088;52.232;5.196;2023-12-22T12:35:52;100259.81;;;10.35;92.74
48267;BME280;34088;52.232;5.196;2023-12-22T12:38:21;100242.56;;;10.35;92.21
48267;BME280;34088;52.232;5.196;2023-12-22T12:40:50;100238.22;;;10.36;91.91
48267;BME280;34088;52.232;5.196;2023-12-22T12:43:17;100238.38;;;10.33;92.29
48267;BME280;34088;52.232;5.196;2023-12-22T12:45:42;100242.34;;;10.40;92.35
48267;BME280;34088;52.232;5.196;2023-12-22T12:48:07;100249.31;;;10.38;92.25
48267;BME280;34088;52.232;5.196;2023-12-22T12:50:32;100240.59;;;10.40;92.23
48267;BME280;34088;52.232;5.196;2023-12-22T12:52:58;100239.88;;;10.37;91.90
48267;BME280;34088;52.232;5.196;2023-12-22T12:55:25;100248.19;;;10.45;91.32
48267;BME280;34088;52.232;5.196;2023-12-22T12:57:54;100250.88;;;10.42;91.16
48267;BME280;34088;52.232;5.196;2023-12-22T13:00:33;100245.06;;;10.37;91.76
48267;BME280;34088;52.232;5.196;2023-12-22T13:03:02;100254.44;;;10.39;90.92
48267;BME280;34088;52.232;5.196;2023-12-22T13:05:31;100250.88;;;10.42;90.98
48267;BME280;34088;52.232;5.196;2023-12-22T13:08:07;100255.25;;;10.41;90.70
48267;BME280;34088;52.232;5.196;2023-12-22T13:10:36;100263.00;;;10.41;90.92
48267;BME280;34088;52.232;5.196;2023-12-22T13:13:02;100251.84;;;10.39;90.58
48267;BME280;34088;52.232;5.196;2023-12-22T13:15:28;100261.19;;;10.43;90.11
48267;BME280;34088;52.232;5.196;2023-12-22T13:17:53;100267.22;;;10.44;90.47
48267;BME280;34088;52.232;5.196;2023-12-22T13:20:20;100246.69;;;10.39;90.25
48267;BME280;34088;52.232;5.196;2023-12-22T13:22:45;100259.63;;;10.39;89.69
48267;BME280;34088;52.232;5.196;2023-12-22T13:25:11;100236.28;;;10.41;90.17
48267;BME280;34088;52.232;5.196;2023-12-22T13:27:47;100255.16;;;10.43;89.92
48267;BME280;34088;52.232;5.196;2023-12-22T13:32:58;100247.53;;;10.40;89.85
48267;BME280;34088;52.232;5.196;2023-12-22T13:35:23;100244.75;;;10.44;90.05
48267;BME280;34088;52.232;5.196;2023-12-22T13:37:49;100262.84;;;10.44;89.45
48267;BME280;34088;52.232;5.196;2023-12-22T13:40:15;100263.50;;;10.49;89.98
48267;BME280;34088;52.232;5.196;2023-12-22T13:42:40;100259.34;;;10.45;89.79
48267;BME280;34088;52.232;5.196;2023-12-22T13:45:10;100255.75;;;10.49;89.74
48267;BME280;34088;52.232;5.196;2023-12-22T13:47:40;100254.97;;;10.47;90.39
48267;BME280;34088;52.232;5.196;2023-12-22T13:50:16;100277.41;;;10.47;90.03
48267;BME280;34088;52.232;5.196;2023-12-22T13:52:41;100275.09;;;10.21;94.41
48267;BME280;34088;52.232;5.196;2023-12-22T13:55:12;100276.72;;;10.23;94.61
48267;BME280;34088;52.232;5.196;2023-12-22T13:57:38;100268.41;;;10.15;96.07
48267;BME280;34088;52.232;5.196;2023-12-22T14:00:30;100267.50;;;10.16;95.81
48267;BME280;34088;52.232;5.196;2023-12-22T14:02:56;100272.69;;;10.16;95.49
48267;BME280;34088;52.232;5.196;2023-12-22T14:05:22;100288.91;;;10.20;94.96
48267;BME280;34088;52.232;5.196;2023-12-22T14:07:48;100296.63;;;10.21;94.98